YEML

Details ICAO YEML (EMD)
Name Emerald
Region Australia
Timezone Australia/Brisbane (UTC+10.0)
Plans Departing 8
Arriving 6
Stats Elevation 623 ft / 190 m (AMSL)
Location -23.568347° 148.178095°
Runways 2
Magnetic Variation 8.626° E
Sunrise 2017-12-17 19:17:32 UTC / 2017-12-18 05:17:32 Local
Sunset 2017-12-18 08:52:35 UTC / 2017-12-18 18:52:35 Local
Advertisement - Login to hide

Runways

ID Width Length Bearing (true) Bearing (mag) Surface Threshold Offset Overrun Length
06 98 ft / 30 m 6,224 ft / 1,897 m 70.40° 61.77° Asphalt 0 ft / 0 m 98 ft / 30 m
15 62 ft / 19 m 2,312 ft / 705 m 151.69° 143.06° Asphalt 0 ft / 0 m 0 ft / 0 m
24 98 ft / 30 m 6,224 ft / 1,897 m 250.40° 241.77° Asphalt 0 ft / 0 m 102 ft / 31 m
33 62 ft / 19 m 2,312 ft / 705 m 331.69° 323.06° Asphalt 0 ft / 0 m 0 ft / 0 m

Map

Weather


0- 5 10 15 20 25 30 35+ Temperature / ° C

Clouds and Precipitation
Forecast for 2017-12-17 18:00 UTC. Updated an hour ago

Ground ~20,000 ft ~40,000 ft Winds

METAR

YEML 171800Z AUTO 13004KT 9999 // NCD 20/17 Q1013

TAF

Not found

Frequencies

Unicom 120.60 MHz ACTIVATE LIGHTS ONLY MULT
Unicom 126.70 MHz EMRALD MULT
Unicom 122.30 MHz BRISBANE CENTRE MULT
Warning: Do not use this data for real-world aviation or navigation. No guarantee of current accuracy is given.